createdAt,value
2019-01-20T00:00:57.169Z,99866.55
2019-01-20T00:03:30.243Z,99866.88
2019-01-20T00:06:03.291Z,99864.73
2019-01-20T00:08:39.706Z,99867.11
2019-01-20T00:11:16.793Z,99861.50
2019-01-20T00:13:48.849Z,99865.20
2019-01-20T00:16:40.633Z,99863.35
2019-01-20T00:19:17.043Z,99859.61
2019-01-20T00:21:51.815Z,99861.98
2019-01-20T00:24:26.097Z,99863.31
2019-01-20T00:27:05.263Z,99867.25
2019-01-20T00:29:39.687Z,99863.53
2019-01-20T00:32:14.407Z,99865.45
2019-01-20T00:34:48.363Z,99858.08
2019-01-20T00:37:22.094Z,99867.44
2019-01-20T00:39:56.009Z,99860.51
2019-01-20T00:42:29.017Z,99864.77
2019-01-20T00:45:03.209Z,99858.38
2019-01-20T00:47:37.165Z,99856.55
2019-01-20T00:50:10.649Z,99861.84
2019-01-20T00:52:44.530Z,99861.07
2019-01-20T00:55:17.620Z,99860.51
2019-01-20T00:57:51.551Z,99855.18
2019-01-20T01:00:27.605Z,99858.36
2019-01-20T01:03:01.175Z,99860.22
2019-01-20T01:05:37.028Z,99861.83
2019-01-20T01:08:10.228Z,99858.94
2019-01-20T01:10:43.203Z,99864.58
2019-01-20T01:13:15.909Z,99860.55
2019-01-20T01:15:48.971Z,99864.25
2019-01-20T01:18:22.290Z,99872.23
2019-01-20T01:20:55.666Z,99868.48
2019-01-20T01:23:29.185Z,99870.14
2019-01-20T01:26:01.667Z,99858.41
2019-01-20T01:28:35.373Z,99866.43
2019-01-20T01:31:09.195Z,99866.95
2019-01-20T01:33:42.780Z,99862.97
2019-01-20T01:36:16.180Z,99867.23
2019-01-20T01:38:49.551Z,99863.48
2019-01-20T01:41:22.655Z,99856.07
2019-01-20T01:43:56.044Z,99857.66
2019-01-20T01:46:29.431Z,99858.73
2019-01-20T01:49:03.571Z,99849.98
2019-01-20T01:51:38.620Z,99855.55
2019-01-20T01:54:12.499Z,99861.91
2019-01-20T01:56:46.217Z,99845.72
2019-01-20T01:59:19.229Z,99853.13
2019-01-20T02:01:51.950Z,99854.22
2019-01-20T02:04:25.050Z,99852.93
2019-01-20T02:06:58.370Z,99855.34
2019-01-20T02:09:32.478Z,99855.06
2019-01-20T02:12:05.559Z,99855.10
2019-01-20T02:14:38.239Z,99857.52
2019-01-20T02:17:11.333Z,99857.23
2019-01-20T02:19:44.340Z,99845.31
2019-01-20T02:22:16.655Z,99853.32
2019-01-20T02:24:49.783Z,99855.45
2019-01-20T02:27:22.783Z,99861.02
2019-01-20T02:29:56.279Z,99858.11
2019-01-20T02:32:28.959Z,99856.25
2019-01-20T02:35:02.353Z,99860.00
2019-01-20T02:37:35.130Z,99858.97
2019-01-20T02:40:08.750Z,99860.58
2019-01-20T02:42:42.549Z,99858.47
2019-01-20T02:45:16.713Z,99857.42
2019-01-20T02:47:50.680Z,99856.62
2019-01-20T02:50:23.031Z,99849.73
2019-01-20T02:52:58.793Z,99862.19
2019-01-20T02:55:32.117Z,99859.50
2019-01-20T02:58:05.105Z,99859.00
2019-01-20T03:00:38.209Z,99858.20
2019-01-20T03:03:13.185Z,99857.42
2019-01-20T03:05:57.138Z,99857.70
2019-01-20T03:08:38.170Z,99859.55
2019-01-20T03:11:33.024Z,99862.23
2019-01-20T03:14:11.677Z,99857.97
2019-01-20T03:16:53.246Z,99860.36
2019-01-20T03:19:33.676Z,99857.97
2019-01-20T03:22:15.991Z,99855.34
2019-01-20T03:24:55.717Z,99853.20
2019-01-20T03:27:28.750Z,99853.25
2019-01-20T03:30:01.322Z,99855.08
2019-01-20T03:32:34.038Z,99852.15
2019-01-20T03:35:08.227Z,99857.48
2019-01-20T03:37:40.827Z,99846.56
2019-01-20T03:40:15.792Z,99847.87
2019-01-20T03:42:50.273Z,99842.53
2019-01-20T03:45:23.228Z,99843.08
2019-01-20T03:47:56.320Z,99844.98
2019-01-20T03:50:29.817Z,99849.77
2019-01-20T03:53:02.487Z,99841.27
2019-01-20T03:55:34.737Z,99847.89
2019-01-20T03:58:08.042Z,99840.75
2019-01-20T04:00:40.954Z,99844.20
2019-01-20T04:03:14.348Z,99842.64
2019-01-20T04:05:47.953Z,99843.70
2019-01-20T04:08:21.293Z,99837.62
2019-01-20T04:10:54.601Z,99851.41
2019-01-20T04:13:28.043Z,99848.26
2019-01-20T04:16:01.434Z,99840.59
2019-01-20T04:18:34.397Z,99851.73
2019-01-20T04:21:09.006Z,99850.67
2019-01-20T04:23:42.040Z,99848.80
2019-01-20T04:26:15.351Z,99849.34
2019-01-20T04:28:48.004Z,99852.25
2019-01-20T04:31:20.981Z,99847.77
2019-01-20T04:33:55.721Z,99847.74
2019-01-20T04:36:29.268Z,99848.80
2019-01-20T04:39:02.240Z,99852.27
2019-01-20T04:41:37.106Z,99853.58
2019-01-20T04:44:10.554Z,99856.23
2019-01-20T04:46:43.995Z,99853.87
2019-01-20T04:49:17.331Z,99844.05
2019-01-20T04:51:51.259Z,99848.81
2019-01-20T04:54:24.654Z,99852.53
2019-01-20T04:56:57.265Z,99852.53
2019-01-20T04:59:31.035Z,99852.53
2019-01-20T05:02:05.051Z,99851.45
2019-01-20T05:04:38.515Z,99852.27
2019-01-20T05:07:11.932Z,99855.97
2019-01-20T05:09:45.333Z,99862.33
2019-01-20T05:12:18.447Z,99849.86
2019-01-20T05:14:51.766Z,99854.09
2019-01-20T05:17:24.358Z,99852.49
2019-01-20T05:19:57.819Z,99852.49
2019-01-20T05:22:30.917Z,99861.77
2019-01-20T05:25:04.625Z,99858.59
2019-01-20T05:27:37.675Z,99855.96
2019-01-20T05:30:15.604Z,99855.17
2019-01-20T05:32:49.186Z,99854.91
2019-01-20T05:35:22.307Z,99856.50
2019-01-20T05:37:55.606Z,99854.64
2019-01-20T05:40:31.314Z,99858.09
2019-01-20T05:43:03.912Z,99858.88
2019-01-20T05:45:36.985Z,99856.52
2019-01-20T05:48:10.423Z,99860.49
2019-01-20T05:50:42.949Z,99862.59
2019-01-20T05:53:16.434Z,99858.33
2019-01-20T05:55:49.703Z,99860.20
2019-01-20T05:58:22.779Z,99868.97
2019-01-20T06:00:55.714Z,99871.62
2019-01-20T06:03:28.722Z,99886.17
2019-01-20T06:06:02.626Z,99882.45
2019-01-20T06:08:35.935Z,99882.72
2019-01-20T06:11:09.443Z,99883.00
2019-01-20T06:13:42.812Z,99879.83
2019-01-20T06:16:16.261Z,99884.35
2019-01-20T06:18:51.345Z,99879.86
2019-01-20T06:21:30.251Z,99877.22
2019-01-20T06:24:03.951Z,99880.39
2019-01-20T06:26:37.652Z,99876.92
2019-01-20T06:29:11.105Z,99879.31
2019-01-20T06:31:44.901Z,99878.78
2019-01-20T06:34:18.104Z,99883.23
2019-01-20T06:36:51.161Z,99884.56
2019-01-20T06:39:24.453Z,99885.38
2019-01-20T06:41:57.522Z,99885.61
2019-01-20T06:44:30.960Z,99894.64
2019-01-20T06:47:03.941Z,99897.02
2019-01-20T06:49:37.294Z,99893.02
2019-01-20T06:52:10.350Z,99890.61
2019-01-20T06:54:44.035Z,99893.77
2019-01-20T06:57:17.152Z,99899.05
2019-01-20T06:59:50.237Z,99901.98
2019-01-20T07:02:23.587Z,99907.48
2019-01-20T07:04:56.654Z,99912.77
2019-01-20T07:07:30.412Z,99919.89
2019-01-20T07:10:04.229Z,99914.05
2019-01-20T07:12:37.555Z,99918.30
2019-01-20T07:15:15.808Z,99921.25
2019-01-20T07:17:49.460Z,99911.20
2019-01-20T07:20:22.661Z,99925.77
2019-01-20T07:22:56.128Z,99930.28
2019-01-20T07:25:29.498Z,99932.11
2019-01-20T07:28:05.221Z,99932.63
2019-01-20T07:30:38.941Z,99935.28
2019-01-20T07:33:12.681Z,99935.80
2019-01-20T07:35:45.759Z,99936.33
2019-01-20T07:38:18.757Z,99942.19
2019-01-20T07:40:52.050Z,99946.73
2019-01-20T07:43:25.858Z,99948.36
2019-01-20T07:45:59.363Z,99951.53
2019-01-20T07:48:32.339Z,99959.53
2019-01-20T07:51:05.800Z,99958.20
2019-01-20T07:53:40.313Z,99968.84
2019-01-20T07:56:16.519Z,99964.65
2019-01-20T07:58:57.504Z,99969.42
2019-01-20T08:01:30.964Z,99967.34
2019-01-20T08:04:06.039Z,99970.04
2019-01-20T08:06:39.537Z,99967.95
2019-01-20T08:09:12.856Z,99968.51
2019-01-20T08:11:47.178Z,99971.70
2019-01-20T08:14:20.581Z,99975.13
2019-01-20T08:16:57.422Z,99977.27
2019-01-20T08:19:30.014Z,99976.72
2019-01-20T08:22:03.448Z,99984.36
2019-01-20T08:24:37.245Z,99979.80
2019-01-20T08:27:10.206Z,99983.72
2019-01-20T08:29:42.787Z,99986.41
2019-01-20T08:32:15.886Z,99995.91
2019-01-20T08:34:48.929Z,99997.02
2019-01-20T08:37:28.635Z,99997.52
2019-01-20T08:39:57.276Z,100002.34
2019-01-20T08:42:30.067Z,100007.02
2019-01-20T08:45:03.431Z,100012.83
2019-01-20T08:47:44.038Z,100013.25
2019-01-20T08:50:16.988Z,100012.30
2019-01-20T08:52:50.975Z,100016.30
2019-01-20T08:55:24.719Z,100015.09
2019-01-20T08:57:58.253Z,100018.80
2019-01-20T09:00:31.678Z,100018.20
2019-01-20T09:03:05.026Z,100024.62
2019-01-20T09:05:37.992Z,100026.51
2019-01-20T09:08:12.498Z,100028.81
2019-01-20T09:10:45.279Z,100030.66
2019-01-20T09:13:18.316Z,100032.23
2019-01-20T09:15:52.055Z,100026.12
2019-01-20T09:18:25.083Z,100029.31
2019-01-20T09:20:59.619Z,100037.68
2019-01-20T09:23:34.752Z,100038.08
2019-01-20T09:26:08.179Z,100034.56
2019-01-20T09:28:41.336Z,100028.13
2019-01-20T09:31:14.476Z,100032.14
2019-01-20T09:33:48.302Z,100040.59
2019-01-20T09:36:21.718Z,100038.38
2019-01-20T09:38:55.058Z,100046.67
2019-01-20T09:41:27.720Z,100043.80
2019-01-20T09:44:01.241Z,100048.13
2019-01-20T09:46:34.337Z,100053.80
2019-01-20T09:49:07.714Z,100048.86
2019-01-20T09:51:42.924Z,100054.83
2019-01-20T09:54:15.955Z,100053.86
2019-01-20T09:56:48.764Z,100058.33
2019-01-20T09:59:22.141Z,100053.76
2019-01-20T10:01:56.154Z,100057.72
2019-01-20T10:04:28.827Z,100055.06
2019-01-20T10:07:02.245Z,100057.89
2019-01-20T10:09:35.814Z,100059.31
2019-01-20T10:12:09.019Z,100060.42
2019-01-20T10:14:42.737Z,100062.12
2019-01-20T10:17:18.287Z,100066.06
2019-01-20T10:19:51.929Z,100065.84
2019-01-20T10:22:25.397Z,100066.95
2019-01-20T10:24:58.807Z,100062.25
2019-01-20T10:27:32.549Z,100059.75
2019-01-20T10:30:09.568Z,100062.59
2019-01-20T10:32:42.748Z,100063.14
2019-01-20T10:35:16.886Z,100058.66
2019-01-20T10:37:50.713Z,100059.30
2019-01-20T10:40:23.751Z,100059.98
2019-01-20T10:42:57.055Z,100065.66
2019-01-20T10:45:30.994Z,100059.98
2019-01-20T10:48:05.291Z,100066.50
2019-01-20T10:50:38.674Z,100063.06
2019-01-20T10:53:12.179Z,100064.14
2019-01-20T10:55:45.690Z,100062.25
2019-01-20T10:58:18.851Z,100069.65
2019-01-20T11:00:52.065Z,100068.88
2019-01-20T11:03:41.918Z,100068.08
2019-01-20T11:06:43.971Z,100071.61
2019-01-20T11:09:19.775Z,100073.85
2019-01-20T11:11:56.362Z,100078.83
2019-01-20T11:14:32.447Z,100078.58
2019-01-20T11:17:06.112Z,100076.64
2019-01-20T11:19:39.304Z,100072.55
2019-01-20T11:22:13.098Z,100075.19
2019-01-20T11:24:46.333Z,100069.39
2019-01-20T11:27:20.008Z,100070.72
2019-01-20T11:29:54.696Z,100065.82
2019-01-20T11:32:28.263Z,100070.73
2019-01-20T11:35:02.180Z,100068.41
2019-01-20T11:37:35.560Z,100063.70
2019-01-20T11:40:10.857Z,100068.69
2019-01-20T11:42:44.774Z,100064.41
2019-01-20T11:45:21.473Z,100063.53
2019-01-20T11:47:54.625Z,100066.08
2019-01-20T11:50:28.420Z,100064.03
2019-01-20T11:53:04.179Z,100065.82
2019-01-20T11:55:37.746Z,100076.64
2019-01-20T11:58:11.612Z,100071.03
2019-01-20T12:00:44.613Z,100066.02
2019-01-20T12:03:21.496Z,100068.55
2019-01-20T12:05:54.175Z,100073.20
2019-01-20T12:08:30.542Z,100076.25
2019-01-20T12:11:03.817Z,100076.41
2019-01-20T12:13:43.155Z,100069.87
2019-01-20T12:16:16.752Z,100073.06
2019-01-20T12:18:50.529Z,100075.79
2019-01-20T12:21:23.945Z,100069.41
2019-01-20T12:23:57.073Z,100069.67
2019-01-20T12:26:30.670Z,100070.86
2019-01-20T12:29:19.620Z,100070.78
2019-01-20T12:31:57.471Z,100071.80
2019-01-20T12:34:39.006Z,100073.42
2019-01-20T12:37:17.036Z,100072.45
2019-01-20T12:39:57.680Z,100069.98
2019-01-20T12:42:39.481Z,100066.85
2019-01-20T12:45:22.670Z,100062.63
2019-01-20T12:48:03.391Z,100065.41
2019-01-20T12:50:40.002Z,100071.08
2019-01-20T12:53:14.872Z,100075.95
2019-01-20T12:55:49.846Z,100075.52
2019-01-20T12:58:30.686Z,100070.87
2019-01-20T13:01:10.194Z,100066.52
2019-01-20T13:03:50.336Z,100063.91
2019-01-20T13:06:29.500Z,100074.44
2019-01-20T13:09:11.200Z,100075.25
2019-01-20T13:11:45.897Z,100083.16
2019-01-20T13:14:23.076Z,100081.39
2019-01-20T13:16:56.337Z,100076.84
2019-01-20T13:19:29.205Z,100079.84
2019-01-20T13:22:02.302Z,100086.19
2019-01-20T13:24:36.318Z,100080.98
2019-01-20T13:27:10.194Z,100082.53
2019-01-20T13:29:43.808Z,100080.59
2019-01-20T13:32:17.279Z,100081.48
2019-01-20T13:34:50.737Z,100079.11
2019-01-20T13:37:23.886Z,100083.59
2019-01-20T13:39:56.590Z,100082.91
2019-01-20T13:42:30.104Z,100081.05
2019-01-20T13:45:03.726Z,100083.63
2019-01-20T13:47:36.453Z,100083.92
2019-01-20T13:50:12.132Z,100080.48
2019-01-20T13:52:44.706Z,100088.81
2019-01-20T13:55:17.661Z,100086.78
2019-01-20T13:57:50.663Z,100089.77
2019-01-20T14:00:23.769Z,100091.94
2019-01-20T14:02:57.692Z,100093.93
2019-01-20T14:05:30.848Z,100090.30
2019-01-20T14:08:03.542Z,100098.91
2019-01-20T14:10:36.703Z,100103.27
2019-01-20T14:13:10.533Z,100097.80
2019-01-20T14:15:43.952Z,100089.42
2019-01-20T14:18:16.640Z,100092.45
2019-01-20T14:20:50.102Z,100093.34
2019-01-20T14:23:23.836Z,100094.48
2019-01-20T14:25:57.854Z,100098.20
2019-01-20T14:28:31.426Z,100105.89
2019-01-20T14:31:04.936Z,100109.59
2019-01-20T14:33:38.357Z,100111.05
2019-01-20T14:36:12.355Z,100107.59
2019-01-20T14:38:45.838Z,100109.91
2019-01-20T14:41:18.820Z,100117.52
2019-01-20T14:43:56.118Z,100113.30
2019-01-20T14:46:30.667Z,100119.44
2019-01-20T14:49:03.544Z,100119.38
2019-01-20T14:51:41.494Z,100125.54
2019-01-20T14:54:14.827Z,100119.97
2019-01-20T14:56:50.497Z,100128.14
2019-01-20T14:59:27.226Z,100126.95
2019-01-20T15:02:06.873Z,100129.00
2019-01-20T15:04:42.265Z,100139.30
2019-01-20T15:07:18.028Z,100133.71
2019-01-20T15:09:51.578Z,100136.14
2019-01-20T15:12:24.995Z,100138.91
2019-01-20T15:14:58.421Z,100135.66
2019-01-20T15:17:31.925Z,100138.09
2019-01-20T15:20:06.514Z,100136.91
2019-01-20T15:22:40.531Z,100137.98
2019-01-20T15:25:14.457Z,100138.20
2019-01-20T15:27:48.419Z,100142.00
2019-01-20T15:30:23.836Z,100150.89
2019-01-20T15:32:57.989Z,100143.02
2019-01-20T15:35:30.984Z,100153.45
2019-01-20T15:38:04.424Z,100150.14
2019-01-20T15:40:37.634Z,100154.09
2019-01-20T15:43:12.423Z,100150.27
2019-01-20T15:45:48.357Z,100155.55
2019-01-20T15:48:28.207Z,100156.14
2019-01-20T15:51:02.158Z,100165.08
2019-01-20T15:53:42.782Z,100170.19
2019-01-20T15:56:42.211Z,100173.69
2019-01-20T15:59:42.310Z,100172.36
2019-01-20T16:02:18.381Z,100178.11
2019-01-20T16:05:03.075Z,100183.98
2019-01-20T16:07:55.721Z,100191.68
2019-01-20T16:10:38.094Z,100196.88
2019-01-20T16:13:24.200Z,100194.39
2019-01-20T16:16:24.724Z,100191.31
2019-01-20T16:19:07.120Z,100198.38
2019-01-20T16:21:44.560Z,100201.88
2019-01-20T16:24:26.228Z,100204.19
2019-01-20T16:27:09.229Z,100212.18
2019-01-20T16:29:43.669Z,100211.28
2019-01-20T16:32:36.830Z,100215.34
2019-01-20T16:35:11.069Z,100212.99
2019-01-20T16:37:44.591Z,100213.56
2019-01-20T16:40:19.497Z,100220.08
2019-01-20T16:42:52.854Z,100227.57
2019-01-20T16:45:33.019Z,100222.85
2019-01-20T16:48:08.005Z,100228.95
2019-01-20T16:53:41.992Z,100240.55
2019-01-20T16:56:30.438Z,100244.33
2019-01-20T16:59:21.687Z,100245.98
2019-01-20T17:01:57.834Z,100254.84
2019-01-20T17:04:37.966Z,100250.04
2019-01-20T17:07:15.881Z,100250.31
2019-01-20T17:10:08.078Z,100255.38
2019-01-20T17:12:47.460Z,100253.31
2019-01-20T17:15:27.387Z,100257.06
2019-01-20T17:18:02.015Z,100266.44
2019-01-20T17:20:35.323Z,100255.01
2019-01-20T17:23:11.272Z,100263.04
2019-01-20T17:25:49.980Z,100264.16
2019-01-20T17:28:25.866Z,100272.67
2019-01-20T17:31:02.871Z,100276.70
2019-01-20T17:33:42.082Z,100275.90
2019-01-20T17:36:17.293Z,100274.06
2019-01-20T17:38:52.574Z,100277.56
2019-01-20T17:41:25.924Z,100274.11
2019-01-20T17:44:00.358Z,100281.07
2019-01-20T17:46:33.508Z,100275.46
2019-01-20T17:49:07.669Z,100288.00
2019-01-20T17:51:49.643Z,100284.80
2019-01-20T17:54:32.091Z,100284.82
2019-01-20T17:57:16.047Z,100298.95
2019-01-20T17:59:50.041Z,100293.09
2019-01-20T18:02:27.613Z,100293.06
2019-01-20T18:05:08.135Z,100291.73
2019-01-20T18:07:41.206Z,100302.66
2019-01-20T18:10:14.918Z,100311.44
2019-01-20T18:12:48.611Z,100303.72
2019-01-20T18:15:22.095Z,100302.11
2019-01-20T18:17:55.429Z,100309.87
2019-01-20T18:20:29.052Z,100307.19
2019-01-20T18:23:02.437Z,100307.20
2019-01-20T18:25:36.003Z,100312.81
2019-01-20T18:28:16.468Z,100311.20
2019-01-20T18:30:57.105Z,100310.94
2019-01-20T18:33:56.882Z,100319.19
2019-01-20T19:01:50.900Z,100342.19
2019-01-20T19:04:43.480Z,100347.94
2019-01-20T19:07:20.030Z,100357.21
2019-01-20T19:10:20.448Z,100350.56
2019-01-20T19:13:11.044Z,100355.81
2019-01-20T19:15:54.336Z,100357.12
2019-01-20T19:18:31.530Z,100360.09
2019-01-20T19:21:12.440Z,100355.56
2019-01-20T19:23:46.655Z,100363.56
2019-01-20T19:26:24.243Z,100362.98
2019-01-20T19:29:02.946Z,100363.00
2019-01-20T19:31:35.167Z,100361.95
2019-01-20T19:34:12.712Z,100367.30
2019-01-20T19:36:53.826Z,100367.77
2019-01-20T19:39:41.630Z,100368.09
2019-01-20T19:42:19.113Z,100373.41
2019-01-20T19:44:56.965Z,100375.24
2019-01-20T19:47:33.291Z,100372.61
2019-01-20T19:50:15.084Z,100380.30
2019-01-20T19:52:50.986Z,100377.40
2019-01-20T19:55:29.531Z,100378.27
2019-01-20T19:58:03.431Z,100372.77
2019-01-20T20:00:38.543Z,100372.52
2019-01-20T20:03:14.291Z,100378.91
2019-01-20T20:05:47.770Z,100377.06
2019-01-20T20:08:20.760Z,100372.55
2019-01-20T20:10:55.828Z,100385.84
2019-01-20T20:13:30.603Z,100381.06
2019-01-20T20:16:03.493Z,100386.66
2019-01-20T20:18:37.027Z,100395.16
2019-01-20T20:21:11.473Z,100398.58
2019-01-20T20:23:47.428Z,100407.80
2019-01-20T20:26:23.436Z,100409.62
2019-01-20T20:28:57.343Z,100407.77
2019-01-20T20:31:30.460Z,100411.79
2019-01-20T20:34:04.358Z,100412.63
2019-01-20T20:36:37.277Z,100413.14
2019-01-20T20:39:12.664Z,100419.45
2019-01-20T20:41:47.242Z,100425.06
2019-01-20T20:44:20.318Z,100426.11
2019-01-20T20:46:53.006Z,100435.71
2019-01-20T20:49:28.525Z,100434.45
2019-01-20T20:52:01.337Z,100434.39
2019-01-20T20:54:35.869Z,100438.59
2019-01-20T20:57:10.356Z,100440.16
2019-01-20T20:59:43.557Z,100438.05
2019-01-20T21:02:16.714Z,100439.18
2019-01-20T21:04:50.357Z,100444.45
2019-01-20T21:07:23.498Z,100448.13
2019-01-20T21:09:57.582Z,100451.86
2019-01-20T21:12:30.639Z,100455.34
2019-01-20T21:15:04.037Z,100452.42
2019-01-20T21:17:37.147Z,100452.73
2019-01-20T21:20:20.555Z,100456.12
2019-01-20T21:22:54.227Z,100455.15
2019-01-20T21:25:28.982Z,100459.20
2019-01-20T21:28:02.254Z,100458.94
2019-01-20T21:30:35.399Z,100454.71
2019-01-20T21:33:09.064Z,100461.04
2019-01-20T21:35:42.614Z,100463.08
2019-01-20T21:38:16.726Z,100466.26
2019-01-20T21:40:54.129Z,100469.48
2019-01-20T21:43:31.224Z,100468.70
2019-01-20T21:46:05.683Z,100463.60
2019-01-20T21:48:48.095Z,100467.74
2019-01-20T21:51:27.930Z,100465.89
2019-01-20T21:54:03.972Z,100468.78
2019-01-20T21:56:42.922Z,100470.11
2019-01-20T21:59:19.887Z,100472.30
2019-01-20T22:01:54.741Z,100469.95
2019-01-20T22:04:36.633Z,100475.53
2019-01-20T22:07:17.302Z,100475.33
2019-01-20T22:09:57.463Z,100480.30
2019-01-20T22:12:31.425Z,100491.14
2019-01-20T22:15:17.475Z,100489.41
2019-01-20T22:17:54.460Z,100494.09
2019-01-20T22:20:30.167Z,100495.36
2019-01-20T22:26:16.132Z,100500.56
2019-01-20T22:29:01.854Z,100496.75
2019-01-20T22:31:39.090Z,100500.58
2019-01-20T22:34:19.535Z,100503.27
2019-01-20T22:36:59.563Z,100503.27
2019-01-20T22:39:37.873Z,100498.27
2019-01-20T22:42:18.435Z,100497.72
2019-01-20T22:44:58.696Z,100502.77
2019-01-20T22:47:40.928Z,100505.70
2019-01-20T22:50:16.589Z,100506.47
2019-01-20T22:53:02.911Z,100503.00
2019-01-20T22:55:37.411Z,100506.83
2019-01-20T22:58:10.577Z,100505.62
2019-01-20T23:00:54.680Z,100511.66
2019-01-20T23:03:30.484Z,100506.84
2019-01-20T23:06:09.087Z,100513.51
2019-01-20T23:08:48.278Z,100507.90
2019-01-20T23:11:28.165Z,100518.89
2019-01-20T23:14:02.355Z,100508.97
2019-01-20T23:16:35.402Z,100512.76
2019-01-20T23:19:08.041Z,100514.50
2019-01-20T23:21:41.482Z,100517.78
2019-01-20T23:24:29.993Z,100513.95
2019-01-20T23:27:11.440Z,100518.81
2019-01-20T23:29:51.828Z,100519.14
2019-01-20T23:32:34.196Z,100521.05
2019-01-20T23:35:22.624Z,100526.69
2019-01-20T23:38:13.729Z,100527.23
2019-01-20T23:40:54.307Z,100530.64
2019-01-20T23:43:35.781Z,100529.17
2019-01-20T23:46:32.914Z,100533.71
2019-01-20T23:49:06.559Z,100534.78
2019-01-20T23:51:57.078Z,100531.35
2019-01-20T23:54:32.704Z,100530.70
2019-01-20T23:57:08.810Z,100524.61
2019-01-20T23:59:59.975Z,100524.91
